Time;durP1;ratioP1;P1;durP2;ratioP2;P2;SDS_P1;SDS_P2;PMS_P1;PMS_P2;Temp;Humidity;BMP_temperature;BMP_pressure;BME280_temperature;BME280_humidity;BME280_pressure;Samples;Min_cycle;Max_cycle;Signal;HPM_P1;HPM_P2
2022/02/14 00:00:54;;;;;;;25.30;12.20;;;;;;;2.51;57.77;99343.48;105992;1276;97862;-71
2022/02/14 00:03:22;;;;;;;28.00;12.50;;;;;;;2.50;57.53;99338.64;106045;1276;97867;-71
2022/02/14 00:05:50;;;;;;;25.30;12.50;;;;;;;2.51;57.50;99337.90;105931;1277;111494;-71
2022/02/14 00:08:18;;;;;;;25.20;12.40;;;;;;;2.52;57.60;99332.77;106040;1276;97962;-70
2022/02/14 00:10:46;;;;;;;27.00;12.70;;;;;;;2.53;57.59;99325.22;105944;1276;107746;-71
2022/02/14 00:13:14;;;;;;;25.20;12.10;;;;;;;2.52;57.67;99325.41;105948;1276;99007;-71
2022/02/14 00:15:43;;;;;;;30.50;13.50;;;;;;;2.51;57.62;99324.05;105975;1276;97952;-71
2022/02/14 00:18:11;;;;;;;24.10;11.60;;;;;;;2.50;57.48;99320.92;105978;1276;111298;-70
2022/02/14 00:20:38;;;;;;;25.30;11.60;;;;;;;2.48;57.72;99316.48;106127;1276;97892;-72
2022/02/14 00:23:06;;;;;;;28.30;13.60;;;;;;;2.44;57.66;99317.66;106125;1276;107729;-71
2022/02/14 00:25:34;;;;;;;26.70;13.10;;;;;;;2.42;57.63;99317.23;106128;1276;98583;-71
2022/02/14 00:28:02;;;;;;;28.90;12.60;;;;;;;2.39;57.43;99311.70;106158;1276;97841;-71
2022/02/14 00:30:30;;;;;;;25.70;12.10;;;;;;;2.37;57.81;99309.68;106157;1276;111418;-72
2022/02/14 00:32:58;;;;;;;27.00;12.40;;;;;;;2.36;58.17;99302.56;106159;1276;95186;-73
2022/02/14 00:35:26;;;;;;;25.80;12.30;;;;;;;2.34;57.98;99304.20;106162;1275;107694;-71
2022/02/14 00:37:54;;;;;;;25.60;12.70;;;;;;;2.34;57.85;99303.14;106142;1277;97885;-72
2022/02/14 00:40:22;;;;;;;28.20;13.30;;;;;;;2.33;58.13;99297.73;106184;1276;96987;-72
2022/02/14 00:42:50;;;;;;;26.20;12.70;;;;;;;2.32;57.93;99294.13;106163;1276;111358;-72
2022/02/14 00:45:18;;;;;;;26.80;13.20;;;;;;;2.31;58.07;99290.29;106172;1275;97864;-71
2022/02/14 00:47:46;;;;;;;26.90;12.50;;;;;;;2.30;58.12;99283.48;106076;1276;107761;-71
2022/02/14 00:50:16;;;;;;;27.50;13.60;;;;;;;2.28;58.26;99280.61;105981;1276;97967;-71
2022/02/14 00:52:43;;;;;;;28.60;12.90;;;;;;;2.24;58.07;99277.77;106178;1275;95181;-73
2022/02/14 00:55:14;;;;;;;26.10;12.40;;;;;;;2.22;58.27;99272.92;106095;1277;111220;-73
2022/02/14 00:57:43;;;;;;;27.10;12.00;;;;;;;2.21;58.11;99272.10;106115;1277;95317;-73
2022/02/14 01:00:14;;;;;;;26.40;11.90;;;;;;;2.20;58.23;99276.83;106168;1277;107784;-71
2022/02/14 01:02:42;;;;;;;25.40;11.70;;;;;;;2.19;58.16;99272.84;106128;1277;97909;-72
2022/02/14 01:05:11;;;;;;;31.30;12.80;;;;;;;2.21;58.27;99271.39;106183;1275;97885;-71
2022/02/14 01:07:39;;;;;;;24.10;12.10;;;;;;;2.24;58.40;99274.98;106183;1275;111549;-70
2022/02/14 01:10:10;;;;;;;27.20;13.20;;;;;;;2.21;58.09;99271.38;106158;1277;95207;-71
2022/02/14 01:12:40;;;;;;;27.00;13.30;;;;;;;2.20;58.23;99270.55;106151;1277;107651;-71
2022/02/14 01:15:09;;;;;;;25.30;11.80;;;;;;;2.19;58.37;99266.75;106111;1277;95253;-70
2022/02/14 01:17:38;;;;;;;28.10;13.10;;;;;;;2.17;58.31;99264.50;106170;1277;97946;-71
2022/02/14 01:20:08;;;;;;;25.80;12.10;;;;;;;2.15;58.40;99260.93;106165;1275;111413;-71
2022/02/14 01:22:36;;;;;;;28.00;13.00;;;;;;;2.11;58.35;99258.63;106143;1277;95879;-72
2022/02/14 01:25:06;;;;;;;25.20;12.30;;;;;;;2.08;58.54;99260.98;106121;1275;107667;-71
2022/02/14 01:27:35;;;;;;;26.80;11.70;;;;;;;2.04;58.66;99256.42;106183;1277;97974;-71
2022/02/14 01:30:05;;;;;;;24.50;11.40;;;;;;;2.02;58.76;99248.45;106143;1276;97899;-72
2022/02/14 01:32:33;;;;;;;23.80;11.70;;;;;;;2.00;58.47;99244.98;106163;1276;111388;-73
2022/02/14 01:35:04;;;;;;;23.80;11.10;;;;;;;2.02;58.60;99238.98;106209;1277;97963;-73
2022/02/14 01:37:32;;;;;;;25.80;11.90;;;;;;;2.05;58.53;99237.98;106108;1276;107750;-74
2022/02/14 01:40:00;;;;;;;27.30;12.60;;;;;;;2.07;58.53;99229.88;106172;1276;97993;-74
2022/02/14 01:42:29;;;;;;;24.00;11.20;;;;;;;2.07;58.85;99229.17;106175;1276;97876;-72
2022/02/14 01:44:59;;;;;;;28.50;13.00;;;;;;;2.07;58.67;99227.25;106064;1276;112471;-73
2022/02/14 01:47:27;;;;;;;26.90;11.70;;;;;;;2.07;58.71;99225.86;106168;1275;95695;-73
2022/02/14 01:49:55;;;;;;;26.20;12.70;;;;;;;2.07;58.77;99225.67;106079;1276;107802;-72
2022/02/14 01:52:23;;;;;;;24.40;11.10;;;;;;;2.07;58.71;99217.30;106139;1276;97980;-71
2022/02/14 01:54:52;;;;;;;25.40;12.80;;;;;;;2.08;58.91;99214.63;106151;1276;97981;-72
2022/02/14 01:57:25;;;;;;;18.60;8.60;;;;;;;2.09;59.11;99209.35;106085;1276;111330;-73
2022/02/14 01:59:53;;;;;;;25.40;11.80;;;;;;;2.10;58.98;99210.38;106137;1276;95218;-72
2022/02/14 02:02:21;;;;;;;23.70;11.90;;;;;;;2.09;58.92;99207.59;106072;1277;107742;-72
2022/02/14 02:04:49;;;;;;;23.80;10.80;;;;;;;2.12;59.01;99202.95;106062;1277;97961;-73
2022/02/14 02:07:17;;;;;;;25.50;11.50;;;;;;;2.13;59.19;99201.34;106066;1277;97867;-72
2022/02/14 02:09:46;;;;;;;26.40;11.90;;;;;;;2.15;59.14;99202.33;106120;1276;111386;-74
2022/02/14 02:12:23;;;;;;;25.70;11.30;;;;;;;2.15;59.16;99199.88;106083;1276;97958;-72
2022/02/14 02:15:02;;;;;;;26.60;12.90;;;;;;;2.15;59.42;99201.60;106141;1277;105942;-74
2022/02/14 02:17:35;;;;;;;24.80;11.70;;;;;;;2.15;59.32;99200.20;106155;1276;95258;-72
2022/02/14 02:20:06;;;;;;;25.60;11.60;;;;;;;2.16;59.19;99192.32;106174;1277;97880;-73
2022/02/14 02:22:34;;;;;;;25.80;11.70;;;;;;;2.17;59.44;99192.27;106223;1276;111363;-72
2022/02/14 02:25:04;;;;;;;24.00;11.50;;;;;;;2.18;59.34;99193.84;106058;1276;95484;-71
2022/02/14 02:27:31;;;;;;;25.70;11.90;;;;;;;2.18;59.30;99186.64;106163;1275;107756;-72
2022/02/14 02:30:02;;;;;;;23.80;10.70;;;;;;;2.19;59.53;99191.13;106128;1276;97979;-72
2022/02/14 02:32:31;;;;;;;26.90;11.70;;;;;;;2.20;59.50;99186.73;106121;1276;97963;-72
2022/02/14 02:35:01;;;;;;;24.80;11.90;;;;;;;2.18;59.53;99181.94;106117;1276;111615;-72
2022/02/14 02:37:30;;;;;;;24.50;11.60;;;;;;;2.17;59.20;99183.38;106132;1276;97704;-71
2022/02/14 02:39:58;;;;;;;24.40;11.00;;;;;;;2.15;59.30;99180.08;106131;1276;107819;-74
2022/02/14 02:42:27;;;;;;;27.80;11.10;;;;;;;2.15;59.52;99185.02;106098;1277;96618;-72
2022/02/14 02:44:55;;;;;;;23.00;11.10;;;;;;;2.13;59.24;99184.90;106162;1276;97863;-73
2022/02/14 02:47:26;;;;;;;24.40;11.20;;;;;;;2.12;59.37;99185.79;106179;1277;111016;-72
2022/02/14 02:49:55;;;;;;;24.20;11.40;;;;;;;2.14;59.40;99182.23;106172;1276;97948;-69
2022/02/14 02:52:23;;;;;;;22.80;11.00;;;;;;;2.15;59.55;99181.50;106146;1277;106747;-71
2022/02/14 02:54:54;;;;;;;24.40;11.50;;;;;;;2.13;59.29;99180.33;106024;1276;97887;-70
2022/02/14 02:57:24;;;;;;;23.80;10.90;;;;;;;2.13;59.38;99182.11;105969;1276;95382;-70
2022/02/14 02:59:53;;;;;;;23.60;11.20;;;;;;;2.12;59.41;99182.31;106028;1276;111643;-69
2022/02/14 03:02:22;;;;;;;24.30;10.30;;;;;;;2.11;59.31;99180.05;106024;1276;96281;-66
2022/02/14 03:04:49;;;;;;;23.10;10.00;;;;;;;2.11;59.43;99174.13;106022;1276;107302;-72
2022/02/14 03:07:17;;;;;;;24.80;11.00;;;;;;;2.10;59.32;99167.69;106121;1276;96589;-72
2022/02/14 03:09:47;;;;;;;23.40;10.00;;;;;;;2.10;59.23;99164.89;106169;1276;97870;-72
2022/02/14 03:12:20;;;;;;;22.30;10.60;;;;;;;2.10;59.44;99158.42;106095;1276;111440;-73
2022/02/14 03:14:49;;;;;;;24.50;10.10;;;;;;;2.11;59.53;99159.78;106112;1276;97946;-70
2022/02/14 03:17:17;;;;;;;21.80;9.60;;;;;;;2.12;59.59;99156.76;106181;1277;107846;-69
2022/02/14 03:19:45;;;;;;;24.60;11.00;;;;;;;2.14;59.60;99155.27;106174;1276;97952;-73
2022/02/14 03:22:13;;;;;;;22.90;10.10;;;;;;;2.14;59.29;99155.14;106175;1277;95259;-70
2022/02/14 03:24:41;;;;;;;25.10;10.70;;;;;;;2.14;59.20;99150.06;106119;1277;111300;-71
2022/02/14 03:27:08;;;;;;;21.70;10.50;;;;;;;2.14;59.35;99153.55;106128;1277;98560;-69
2022/02/14 03:29:37;;;;;;;23.20;10.50;;;;;;;2.13;59.31;99156.58;106140;1277;107713;-70
2022/02/14 03:32:05;;;;;;;21.90;10.20;;;;;;;2.11;59.06;99158.91;106164;1277;97974;-70
2022/02/14 03:34:33;;;;;;;22.40;9.80;;;;;;;2.11;59.64;99157.34;105696;1277;488006;-68
2022/02/14 03:37:01;;;;;;;25.00;11.70;;;;;;;2.11;59.38;99155.75;106038;1277;111509;-70
2022/02/14 03:39:29;;;;;;;25.30;10.30;;;;;;;2.10;59.23;99154.56;106162;1277;97714;-71
2022/02/14 03:41:57;;;;;;;23.10;9.80;;;;;;;2.08;59.17;99151.14;106075;1277;107685;-70
2022/02/14 03:44:25;;;;;;;22.70;9.40;;;;;;;2.07;59.39;99152.73;106112;1276;98525;-70
2022/02/14 03:46:54;;;;;;;23.30;10.30;;;;;;;2.08;59.70;99148.31;106075;1276;98937;-71
2022/02/14 03:49:21;;;;;;;23.40;10.20;;;;;;;2.08;59.57;99148.84;106130;1276;112268;-72
2022/02/14 03:51:49;;;;;;;24.10;11.00;;;;;;;2.07;59.56;99150.98;106106;1277;98011;-72
2022/02/14 03:54:17;;;;;;;26.20;10.90;;;;;;;2.05;59.43;99147.73;105984;1277;107818;-71
2022/02/14 03:56:45;;;;;;;24.00;10.40;;;;;;;2.03;59.44;99151.30;106102;1276;97638;-73
2022/02/14 03:59:14;;;;;;;20.90;9.00;;;;;;;2.03;59.57;99151.14;106119;1276;97867;-73
2022/02/14 04:01:42;;;;;;;21.50;9.80;;;;;;;2.01;59.54;99151.39;106109;1276;111217;-73
2022/02/14 04:04:10;;;;;;;23.40;10.80;;;;;;;2.00;59.59;99153.17;106024;1276;97884;-73
2022/02/14 04:06:38;;;;;;;24.50;9.80;;;;;;;1.97;59.39;99152.40;106128;1276;107739;-72
2022/02/14 04:09:06;;;;;;;23.40;10.40;;;;;;;1.98;59.46;99151.87;106136;1276;97989;-72
2022/02/14 04:11:33;;;;;;;22.10;9.30;;;;;;;1.98;59.58;99152.55;106124;1276;95281;-73
2022/02/14 04:14:01;;;;;;;21.30;9.10;;;;;;;1.98;59.80;99150.29;106149;1276;111488;-73
2022/02/14 04:16:29;;;;;;;25.10;11.90;;;;;;;1.99;59.43;99148.14;106057;1276;97979;-70
2022/02/14 04:18:57;;;;;;;23.10;10.20;;;;;;;2.00;59.50;99150.03;106015;1276;107698;-73
2022/02/14 04:21:27;;;;;;;22.20;9.80;;;;;;;2.02;59.74;99148.02;106009;1276;95274;-70
2022/02/14 04:23:55;;;;;;;22.00;10.00;;;;;;;2.03;59.72;99148.86;106107;1276;98035;-72
2022/02/14 04:26:23;;;;;;;22.90;9.80;;;;;;;2.05;59.75;99147.04;106040;1276;111392;-72
2022/02/14 04:28:51;;;;;;;23.30;9.70;;;;;;;2.06;59.57;99146.47;106077;1276;97966;-70
2022/02/14 04:31:19;;;;;;;22.20;9.60;;;;;;;2.06;59.58;99144.19;106051;1277;107684;-71
2022/02/14 04:33:47;;;;;;;22.90;10.40;;;;;;;2.06;59.90;99141.04;106020;1276;97889;-70
2022/02/14 04:36:15;;;;;;;22.10;10.60;;;;;;;2.05;59.72;99141.23;106049;1276;97935;-68
2022/02/14 04:38:43;;;;;;;24.50;11.10;;;;;;;2.05;59.55;99138.11;106041;1276;111483;-71
2022/02/14 04:41:11;;;;;;;24.90;10.40;;;;;;;2.07;59.95;99136.46;106031;1277;95258;-71
2022/02/14 04:43:39;;;;;;;22.70;9.60;;;;;;;2.11;60.03;99138.79;106015;1276;107694;-72
2022/02/14 04:46:07;;;;;;;23.10;10.00;;;;;;;2.13;59.93;99126.09;106019;1276;97921;-70
2022/02/14 04:48:35;;;;;;;22.20;10.30;;;;;;;2.16;60.15;99125.66;106045;1277;97918;-71
2022/02/14 04:51:03;;;;;;;25.60;11.10;;;;;;;2.17;60.19;99122.65;106013;1277;111301;-72
2022/02/14 04:53:31;;;;;;;24.30;10.80;;;;;;;2.20;60.30;99124.60;106008;1277;98469;-74
2022/02/14 04:55:59;;;;;;;21.80;10.50;;;;;;;2.23;59.90;99115.77;105994;1276;107670;-71
2022/02/14 04:58:26;;;;;;;23.30;10.10;;;;;;;2.25;60.14;99114.83;106059;1276;97960;-72
2022/02/14 05:00:55;;;;;;;24.30;10.40;;;;;;;2.26;60.05;99111.64;106028;1276;95369;-70
2022/02/14 05:03:23;;;;;;;24.40;11.90;;;;;;;2.28;60.08;99117.15;106011;1276;111395;-71
2022/02/14 05:05:50;;;;;;;25.20;10.50;;;;;;;2.30;60.10;99115.32;106002;1274;97873;-72
2022/02/14 05:08:18;;;;;;;23.20;9.90;;;;;;;2.31;60.16;99117.58;105997;1276;107677;-71
2022/02/14 05:10:47;;;;;;;22.80;10.80;;;;;;;2.31;59.94;99118.61;106002;1276;95368;-72
2022/02/14 05:13:16;;;;;;;22.20;10.00;;;;;;;2.29;59.94;99118.67;106038;1277;95362;-72
2022/02/14 05:15:44;;;;;;;24.20;10.00;;;;;;;2.29;59.91;99119.55;105894;1276;111348;-70
2022/02/14 05:18:12;;;;;;;25.90;11.70;;;;;;;2.30;60.02;99118.81;106085;1276;98001;-71
2022/02/14 05:20:40;;;;;;;22.50;9.50;;;;;;;2.30;59.97;99118.66;106068;1276;107816;-71
2022/02/14 05:23:08;;;;;;;23.60;10.40;;;;;;;2.30;59.74;99113.23;105963;1276;97043;-73
2022/02/14 05:25:36;;;;;;;25.00;11.30;;;;;;;2.30;59.62;99123.74;106021;1276;97897;-71
2022/02/14 05:28:09;;;;;;;26.10;12.00;;;;;;;2.30;59.90;99125.14;106030;1276;111530;-71
2022/02/14 05:30:38;;;;;;;25.90;11.10;;;;;;;2.30;59.88;99125.14;106059;1276;96595;-71
2022/02/14 05:33:06;;;;;;;25.00;10.30;;;;;;;2.30;59.85;99119.20;105900;1276;107689;-71
2022/02/14 05:35:34;;;;;;;26.10;11.20;;;;;;;2.30;59.83;99112.18;106092;1277;98027;-70
2022/02/14 05:38:02;;;;;;;24.90;10.90;;;;;;;2.30;60.05;99110.25;106170;1277;97890;-69
2022/02/14 05:40:30;;;;;;;23.40;10.60;;;;;;;2.29;60.16;99111.69;106061;1277;111406;-70
2022/02/14 05:42:57;;;;;;;24.30;10.10;;;;;;;2.29;59.68;99109.74;106159;1277;99361;-68
2022/02/14 05:45:25;;;;;;;25.50;12.10;;;;;;;2.30;59.85;99109.71;106006;1277;108367;-71
2022/02/14 05:47:53;;;;;;;23.40;10.00;;;;;;;2.33;59.80;99112.93;106071;1274;97906;-72
2022/02/14 05:50:21;;;;;;;25.40;11.50;;;;;;;2.34;60.17;99113.61;106122;1277;97521;-73
2022/02/14 05:52:49;;;;;;;26.50;12.30;;;;;;;2.37;60.08;99115.23;106083;1277;111415;-72
2022/02/14 05:55:17;;;;;;;25.60;11.40;;;;;;;2.38;60.16;99111.52;106111;1276;95950;-70
2022/02/14 05:57:45;;;;;;;25.70;12.00;;;;;;;2.40;59.88;99117.41;105988;1276;107722;-72
2022/02/14 06:00:14;;;;;;;26.30;11.00;;;;;;;2.43;59.50;99118.01;106028;1277;96320;-72
2022/02/14 06:02:41;;;;;;;25.70;12.50;;;;;;;2.45;59.89;99123.00;106071;1276;98084;-72
2022/02/14 06:05:09;;;;;;;23.90;10.20;;;;;;;2.48;59.68;99125.16;106045;1276;110961;-73
2022/02/14 06:07:37;;;;;;;24.20;11.00;;;;;;;2.48;59.83;99120.39;105967;1276;97713;-73
2022/02/14 06:10:05;;;;;;;22.70;10.30;;;;;;;2.52;60.01;99127.27;105999;1276;106971;-73
2022/02/14 06:12:33;;;;;;;25.00;11.00;;;;;;;2.54;60.03;99124.05;106003;1276;95328;-75
2022/02/14 06:15:01;;;;;;;26.80;12.70;;;;;;;2.55;59.60;99127.34;105996;1276;97993;-75
2022/02/14 06:17:29;;;;;;;26.40;13.00;;;;;;;2.55;59.78;99131.36;106069;1276;112679;-75
2022/02/14 06:19:56;;;;;;;26.00;11.50;;;;;;;2.59;59.61;99128.23;106184;1276;95356;-73
2022/02/14 06:22:25;;;;;;;23.80;11.10;;;;;;;2.64;59.90;99129.98;106094;1277;105617;-73
2022/02/14 06:24:53;;;;;;;26.80;12.30;;;;;;;2.67;59.85;99129.14;106105;1277;97843;-73
2022/02/14 06:27:21;;;;;;;26.40;12.70;;;;;;;2.68;59.47;99133.98;106089;1277;97879;-74
2022/02/14 06:29:49;;;;;;;25.40;11.90;;;;;;;2.71;59.58;99137.04;106066;1276;111320;-75
2022/02/14 06:32:20;;;;;;;24.10;9.90;;;;;;;2.73;59.74;99135.22;106132;1276;98485;-74
2022/02/14 06:34:48;;;;;;;23.50;10.40;;;;;;;2.77;59.49;99124.55;106150;1276;107743;-76
2022/02/14 06:37:16;;;;;;;23.70;10.50;;;;;;;2.80;59.62;99118.98;106095;1276;95362;-73
2022/02/14 06:39:44;;;;;;;23.10;10.90;;;;;;;2.86;59.40;99126.83;106114;1276;98987;-74
2022/02/14 06:42:12;;;;;;;23.40;10.70;;;;;;;2.90;59.24;99127.20;105992;1279;110383;-72
2022/02/14 06:44:42;;;;;;;26.00;11.30;;;;;;;2.92;59.16;99129.02;106038;1276;97888;-71
2022/02/14 06:47:10;;;;;;;24.60;11.50;;;;;;;2.97;59.24;99120.61;105979;1277;106263;-73
2022/02/14 06:49:38;;;;;;;23.10;10.70;;;;;;;2.99;59.02;99122.46;105927;1276;98670;-70
2022/02/14 06:52:06;;;;;;;26.40;11.50;;;;;;;3.02;59.09;99117.07;105819;1277;97967;-73
2022/02/14 06:54:34;;;;;;;25.50;13.10;;;;;;;3.05;59.12;99115.00;105916;1277;111945;-73
2022/02/14 06:57:02;;;;;;;24.60;11.30;;;;;;;3.08;59.00;99122.61;105953;1277;97964;-72
2022/02/14 06:59:30;;;;;;;24.90;12.50;;;;;;;3.10;59.06;99118.67;105947;1276;107651;-73
2022/02/14 07:01:57;;;;;;;23.30;11.50;;;;;;;3.13;59.00;99112.05;105881;1276;96062;-73
2022/02/14 07:04:25;;;;;;;23.00;10.10;;;;;;;3.17;59.07;99109.11;105870;1276;97857;-74
2022/02/14 07:06:53;;;;;;;24.30;11.30;;;;;;;3.20;58.83;99107.08;105854;1276;111435;-74
2022/02/14 07:09:21;;;;;;;26.90;11.50;;;;;;;3.22;58.80;99106.64;105891;1276;97954;-73
2022/02/14 07:11:50;;;;;;;24.70;11.60;;;;;;;3.25;58.94;99099.30;105850;1276;107782;-72
2022/02/14 07:14:17;;;;;;;23.30;11.20;;;;;;;3.29;58.81;99106.85;105876;1276;97883;-73
2022/02/14 07:16:45;;;;;;;26.10;12.20;;;;;;;3.31;58.57;99097.81;105910;1276;97786;-73
2022/02/14 07:19:13;;;;;;;25.60;11.60;;;;;;;3.34;58.82;99100.31;105847;1277;111392;-71
2022/02/14 07:21:43;;;;;;;25.20;11.30;;;;;;;3.38;58.84;99098.59;105890;1277;97988;-73
2022/02/14 07:24:11;;;;;;;23.10;10.80;;;;;;;3.43;58.57;99104.54;105870;1276;107718;-72
2022/02/14 07:26:39;;;;;;;22.90;10.20;;;;;;;3.46;58.55;99095.61;105809;1276;99144;-72
2022/02/14 07:29:07;;;;;;;25.60;11.00;;;;;;;3.50;58.30;99090.01;105900;1276;97947;-73
2022/02/14 07:31:35;;;;;;;26.40;11.50;;;;;;;3.53;58.29;99093.55;105820;1276;111616;-72
2022/02/14 07:34:03;;;;;;;23.40;10.70;;;;;;;3.56;58.04;99092.89;105754;1276;97930;-73
2022/02/14 07:36:33;;;;;;;22.20;10.40;;;;;;;3.60;57.98;99090.66;105779;1276;108177;-72
2022/02/14 07:39:01;;;;;;;23.30;11.50;;;;;;;3.63;58.10;99088.77;105812;1276;97990;-74
2022/02/14 07:41:34;;;;;;;23.30;10.40;;;;;;;3.66;57.84;99081.97;105893;1276;97978;-73
2022/02/14 07:44:02;;;;;;;23.10;10.10;;;;;;;3.70;57.53;99084.04;105827;1277;111417;-73
2022/02/14 07:46:29;;;;;;;22.30;10.70;;;;;;;3.72;57.85;99085.71;105926;1276;97996;-75
2022/02/14 07:48:57;;;;;;;21.70;9.80;;;;;;;3.75;57.56;99069.63;105908;1276;107407;-73
2022/02/14 07:51:25;;;;;;;22.70;10.90;;;;;;;3.80;57.36;99079.44;105879;1276;96608;-73
2022/02/14 07:53:54;;;;;;;26.50;10.90;;;;;;;3.83;57.69;99078.04;105996;1277;98686;-70
2022/02/14 07:56:22;;;;;;;24.20;10.30;;;;;;;3.87;57.52;99076.98;105948;1277;112287;-71
2022/02/14 07:58:50;;;;;;;27.80;11.40;;;;;;;3.93;57.32;99076.20;106008;1277;97846;-73
2022/02/14 08:01:18;;;;;;;25.50;11.70;;;;;;;3.97;56.97;99074.45;105968;1276;108566;-71
2022/02/14 08:03:46;;;;;;;24.40;11.20;;;;;;;3.99;57.12;99072.58;105913;1277;97862;-72
2022/02/14 08:06:31;;;;;;;22.40;10.50;;;;;;;4.05;57.38;99074.46;105980;1276;97883;-74
2022/02/14 08:09:00;;;;;;;22.60;9.50;;;;;;;4.09;57.21;99066.17;105950;1276;111367;-73
2022/02/14 08:11:27;;;;;;;24.10;11.00;;;;;;;4.13;57.02;99067.02;105924;1277;97737;-74
2022/02/14 08:13:55;;;;;;;26.70;10.10;;;;;;;4.19;57.24;99070.99;105891;1277;107725;-76
2022/02/14 08:16:24;;;;;;;24.40;11.40;;;;;;;4.26;57.30;99070.52;105797;1276;97836;-73
2022/02/14 08:18:52;;;;;;;27.50;10.70;;;;;;;4.31;57.14;99067.44;105796;1276;96163;-74
2022/02/14 08:21:23;;;;;;;23.20;10.90;;;;;;;4.36;57.04;99066.01;105860;1276;111550;-73
2022/02/14 08:23:51;;;;;;;26.30;11.00;;;;;;;4.40;56.69;99067.23;106004;1276;97979;-71
2022/02/14 08:26:19;;;;;;;24.70;10.00;;;;;;;4.43;56.87;99059.18;105941;1276;107909;-76
2022/02/14 08:28:47;;;;;;;22.60;10.20;;;;;;;4.47;56.95;99058.80;105875;1276;96563;-73
2022/02/14 08:31:15;;;;;;;24.00;10.40;;;;;;;4.54;57.13;99062.34;105811;1276;98573;-72
2022/02/14 08:33:45;;;;;;;22.60;11.00;;;;;;;4.60;56.67;99063.44;105948;1276;111487;-73
2022/02/14 08:36:16;;;;;;;21.50;9.50;;;;;;;4.65;56.66;99064.09;105927;1276;96613;-74
2022/02/14 08:38:43;;;;;;;23.80;10.20;;;;;;;4.72;56.58;99069.92;105755;1276;107702;-72
2022/02/14 08:41:11;;;;;;;21.60;9.80;;;;;;;4.76;56.61;99060.04;105834;1277;97907;-73
2022/02/14 08:43:39;;;;;;;23.60;11.10;;;;;;;4.83;56.74;99059.35;105887;1276;96439;-73
2022/02/14 08:46:07;;;;;;;20.50;9.20;;;;;;;4.90;56.57;99059.38;105893;1276;111330;-74
2022/02/14 08:48:35;;;;;;;21.00;10.10;;;;;;;4.96;56.19;99058.54;105923;1276;97874;-73
2022/02/14 08:51:05;;;;;;;22.00;9.60;;;;;;;4.98;56.12;99057.94;105887;1276;107713;-73
2022/02/14 08:53:37;;;;;;;22.40;9.90;;;;;;;5.01;55.95;99060.40;105661;1277;96649;-75
2022/02/14 08:56:06;;;;;;;22.30;10.60;;;;;;;5.07;55.86;99059.08;105859;1277;97900;-74
2022/02/14 08:58:36;;;;;;;22.40;10.30;;;;;;;5.14;55.78;99056.95;105887;1277;111533;-72
2022/02/14 09:01:05;;;;;;;23.70;10.70;;;;;;;5.25;56.01;99060.13;105903;1277;97879;-74
2022/02/14 09:03:34;;;;;;;24.90;10.00;;;;;;;5.40;56.37;99059.34;105862;1277;106733;-75
2022/02/14 09:06:02;;;;;;;22.50;10.20;;;;;;;5.67;56.28;99056.16;105928;1276;97914;-74
2022/02/14 09:08:32;;;;;;;21.90;9.50;;;;;;;5.99;56.07;99057.86;106018;1277;98111;-71
2022/02/14 09:11:00;;;;;;;22.90;10.00;;;;;;;6.29;55.46;99062.27;105876;1277;112185;-74
2022/02/14 09:13:31;;;;;;;20.90;9.40;;;;;;;6.48;55.08;99058.22;105892;1276;97970;-71
2022/02/14 09:16:04;;;;;;;19.90;9.00;;;;;;;6.66;54.55;99058.96;105934;1276;107846;-73
2022/02/14 09:18:33;;;;;;;;;;;;;;;6.86;54.33;99059.78;106008;1276;96440;-73
2022/02/14 09:21:01;;;;;;;25.60;11.20;;;;;;;7.00;53.35;99057.05;105998;1277;95221;-74
2022/02/14 09:23:30;;;;;;;20.90;8.70;;;;;;;7.15;53.95;99049.61;105955;1277;112384;-73
2022/02/14 09:25:59;;;;;;;20.70;9.50;;;;;;;7.53;54.36;99050.02;105987;1276;99484;-72
2022/02/14 09:28:29;;;;;;;19.10;8.60;;;;;;;7.83;53.68;99048.58;105868;1277;107765;-72
2022/02/14 09:30:57;;;;;;;20.50;8.80;;;;;;;8.04;53.76;99049.91;105912;1277;97887;-73
2022/02/14 09:33:25;;;;;;;19.10;8.50;;;;;;;8.25;53.65;99049.86;105922;1276;98606;-73
2022/02/14 09:35:53;;;;;;;19.10;8.60;;;;;;;8.47;52.21;99048.69;105905;1277;110484;-74
2022/02/14 09:38:26;;;;;;;19.30;8.70;;;;;;;8.57;52.46;99045.73;105941;1277;97892;-75
2022/02/14 09:40:54;;;;;;;19.00;8.30;;;;;;;8.98;52.92;99047.34;105861;1277;106717;-73
2022/02/14 09:43:22;;;;;;;19.60;9.30;;;;;;;9.44;52.91;99046.23;105849;1276;97925;-74
2022/02/14 09:45:51;;;;;;;19.80;8.70;;;;;;;9.86;51.37;99050.95;106001;1277;98462;-77
2022/02/14 09:48:20;;;;;;;19.90;9.20;;;;;;;9.94;50.95;99050.36;105939;1277;111192;-74
2022/02/14 09:50:53;;;;;;;20.00;8.80;;;;;;;10.01;51.29;99044.06;106027;1277;95343;-74
2022/02/14 09:53:20;;;;;;;18.80;8.50;;;;;;;9.99;50.87;99048.25;105850;1277;106765;-75
2022/02/14 09:55:49;;;;;;;17.80;8.80;;;;;;;9.85;50.04;99054.05;105873;1277;97882;-74
2022/02/14 09:58:17;;;;;;;21.10;9.10;;;;;;;9.64;49.70;99051.39;105854;1277;98123;-74
2022/02/14 10:00:46;;;;;;;18.90;8.70;;;;;;;9.50;49.43;99053.77;105719;1276;111401;-75
2022/02/14 10:03:19;;;;;;;21.90;9.70;;;;;;;9.42;49.55;99053.59;105918;1277;95729;-76
2022/02/14 10:05:49;;;;;;;;;;;;;;;9.44;49.73;99055.77;105971;1277;109618;-76
2022/02/14 10:08:19;;;;;;;19.50;9.00;;;;;;;9.46;49.49;99052.65;105946;1277;97964;-76
2022/02/14 10:10:50;;;;;;;20.60;9.60;;;;;;;9.52;49.29;99050.66;105942;1277;97896;-75
2022/02/14 10:13:30;;;;;;;19.40;9.00;;;;;;;9.59;49.54;99050.65;105956;1277;113070;-77
2022/02/14 10:15:58;;;;;;;21.30;9.90;;;;;;;9.54;48.58;99050.48;105863;1277;97990;-75
2022/02/14 10:18:47;;;;;;;20.50;8.90;;;;;;;9.45;48.67;99048.98;105945;1276;107906;-77
2022/02/14 10:21:30;;;;;;;22.40;9.50;;;;;;;9.44;48.32;99048.67;105891;1277;97957;-76
2022/02/14 10:24:04;;;;;;;21.30;9.40;;;;;;;9.28;47.58;99050.61;105931;1277;97880;-76
2022/02/14 10:26:34;;;;;;;21.50;10.50;;;;;;;9.19;48.20;99050.17;105917;1277;111440;-74
2022/02/14 10:29:22;;;;;;;22.10;10.80;;;;;;;9.31;47.90;99050.30;105924;1277;97955;-75
2022/02/14 10:31:54;;;;;;;20.50;10.10;;;;;;;9.30;47.99;99051.55;105763;1278;108237;-74
2022/02/14 10:34:37;;;;;;;21.30;10.50;;;;;;;9.28;47.56;99043.54;105947;1277;97840;-76
2022/02/14 10:37:10;;;;;;;19.70;9.20;;;;;;;9.07;46.85;99048.48;105850;1277;96937;-75
2022/02/14 10:39:40;;;;;;;23.90;10.00;;;;;;;8.92;46.99;99050.36;105960;1277;111881;-76
2022/02/14 10:42:19;;;;;;;23.80;11.20;;;;;;;8.82;46.95;99051.02;105920;1278;97617;-74
2022/02/14 10:45:08;;;;;;;23.40;11.20;;;;;;;8.73;47.32;99045.91;106033;1277;107548;-72
2022/02/14 10:47:39;;;;;;;22.70;10.80;;;;;;;8.78;47.30;99046.34;106157;1276;97880;-71
2022/02/14 10:50:18;;;;;;;24.30;11.10;;;;;;;8.90;46.96;99044.48;106034;1277;96364;-75
2022/02/14 10:52:55;;;;;;;21.60;11.10;;;;;;;8.82;46.71;99038.84;105982;1277;111844;-73
2022/02/14 10:55:26;;;;;;;25.10;11.90;;;;;;;8.82;47.20;99039.73;106017;1277;97730;-75
2022/02/14 10:57:58;;;;;;;24.10;11.90;;;;;;;8.88;47.26;99043.91;106031;1277;107048;-74
2022/02/14 11:00:30;;;;;;;21.00;9.90;;;;;;;8.88;47.06;99037.22;106051;1276;96411;-73
2022/02/14 11:03:06;;;;;;;21.00;9.90;;;;;;;8.94;47.35;99041.23;106007;1277;97902;-75
2022/02/14 11:05:38;;;;;;;21.70;10.30;;;;;;;9.04;46.89;99043.92;105982;1277;111450;-73
2022/02/14 11:08:10;;;;;;;22.90;11.10;;;;;;;8.97;47.09;99043.55;105814;1277;98044;-76
2022/02/14 11:10:43;;;;;;;22.70;10.80;;;;;;;8.98;47.15;99047.48;106258;1277;107774;-75
2022/02/14 11:13:15;;;;;;;25.30;11.90;;;;;;;9.11;47.39;99041.70;106008;1277;97850;-74
2022/02/14 11:15:47;;;;;;;22.00;10.70;;;;;;;9.21;47.24;99042.23;106053;1277;95229;-75
2022/02/14 11:18:20;;;;;;;20.10;10.10;;;;;;;9.26;46.80;99039.80;105976;1277;111455;-75
2022/02/14 11:20:50;;;;;;;22.70;9.90;;;;;;;9.15;46.35;99040.87;106060;1277;97482;-75
2022/02/14 11:23:21;;;;;;;23.10;11.00;;;;;;;8.93;45.77;99046.08;105912;1278;107728;-74
2022/02/14 11:25:49;;;;;;;22.60;10.50;;;;;;;8.61;45.93;99040.18;106069;1277;97926;-75